sensor_id;sensor_type;location;lat;lon;timestamp;pressure;altitude;pressure_sealevel;temperature;humidity
29379;BME280;16362;47.202;15.258;2022-07-03T00:02:25;96668.06;;;15.68;100.00
29379;BME280;16362;47.202;15.258;2022-07-03T00:04:51;96658.13;;;15.61;100.00
29379;BME280;16362;47.202;15.258;2022-07-03T00:07:18;96651.06;;;15.60;100.00
29379;BME280;16362;47.202;15.258;2022-07-03T00:09:45;96652.28;;;15.58;100.00
29379;BME280;16362;47.202;15.258;2022-07-03T00:12:12;96653.50;;;15.55;100.00
29379;BME280;16362;47.202;15.258;2022-07-03T00:14:39;96644.38;;;15.49;100.00
29379;BME280;16362;47.202;15.258;2022-07-03T00:17:06;96635.66;;;15.47;100.00
29379;BME280;16362;47.202;15.258;2022-07-03T00:19:33;96632.72;;;15.42;100.00
29379;BME280;16362;47.202;15.258;2022-07-03T00:22:05;96624.47;;;15.44;100.00
29379;BME280;16362;47.202;15.258;2022-07-03T00:27:09;96627.28;;;15.36;100.00
29379;BME280;16362;47.202;15.258;2022-07-03T00:29:40;96631.03;;;15.35;100.00
29379;BME280;16362;47.202;15.258;2022-07-03T00:32:11;96633.06;;;15.32;100.00
29379;BME280;16362;47.202;15.258;2022-07-03T00:34:39;96631.59;;;15.30;100.00
29379;BME280;16362;47.202;15.258;2022-07-03T00:37:08;96635.91;;;15.24;100.00
29379;BME280;16362;47.202;15.258;2022-07-03T00:39:42;96640.00;;;15.20;100.00
29379;BME280;16362;47.202;15.258;2022-07-03T00:42:10;96631.69;;;15.15;100.00
29379;BME280;16362;47.202;15.258;2022-07-03T00:44:52;96622.81;;;15.14;100.00
29379;BME280;16362;47.202;15.258;2022-07-03T00:47:21;96627.16;;;15.15;100.00
29379;BME280;16362;47.202;15.258;2022-07-03T00:49:55;96623.00;;;15.13;100.00
29379;BME280;16362;47.202;15.258;2022-07-03T00:52:24;96622.34;;;15.11;100.00
29379;BME280;16362;47.202;15.258;2022-07-03T00:54:55;96615.31;;;15.10;100.00
29379;BME280;16362;47.202;15.258;2022-07-03T00:57:26;96612.19;;;15.06;100.00
29379;BME280;16362;47.202;15.258;2022-07-03T00:59:54;96609.25;;;15.01;100.00
29379;BME280;16362;47.202;15.258;2022-07-03T01:05:16;96595.38;;;14.97;100.00
29379;BME280;16362;47.202;15.258;2022-07-03T01:16:20;96575.63;;;14.84;100.00
29379;BME280;16362;47.202;15.258;2022-07-03T01:18:49;96579.13;;;14.84;100.00
29379;BME280;16362;47.202;15.258;2022-07-03T01:21:54;96566.56;;;14.85;100.00
29379;BME280;16362;47.202;15.258;2022-07-03T01:30:09;96562.28;;;14.69;100.00
29379;BME280;16362;47.202;15.258;2022-07-03T01:32:49;96549.03;;;14.45;100.00
29379;BME280;16362;47.202;15.258;2022-07-03T01:35:31;96562.00;;;14.42;100.00
29379;BME280;16362;47.202;15.258;2022-07-03T01:38:05;96551.66;;;14.39;100.00
29379;BME280;16362;47.202;15.258;2022-07-03T01:40:35;96543.00;;;14.43;100.00
29379;BME280;16362;47.202;15.258;2022-07-03T01:43:04;96537.69;;;14.50;100.00
29379;BME280;16362;47.202;15.258;2022-07-03T01:45:32;96540.56;;;14.48;100.00
29379;BME280;16362;47.202;15.258;2022-07-03T01:48:02;96544.28;;;14.47;100.00
29379;BME280;16362;47.202;15.258;2022-07-03T01:50:30;96549.22;;;14.44;100.00
29379;BME280;16362;47.202;15.258;2022-07-03T01:53:01;96535.78;;;14.44;100.00
29379;BME280;16362;47.202;15.258;2022-07-03T01:55:32;96531.03;;;14.46;100.00
29379;BME280;16362;47.202;15.258;2022-07-03T01:58:00;96528.81;;;14.49;100.00
29379;BME280;16362;47.202;15.258;2022-07-03T02:00:27;96531.50;;;14.49;100.00
29379;BME280;16362;47.202;15.258;2022-07-03T02:03:02;96525.25;;;14.42;100.00
29379;BME280;16362;47.202;15.258;2022-07-03T02:13:28;96524.47;;;14.27;100.00
29379;BME280;16362;47.202;15.258;2022-07-03T02:15:58;96520.91;;;14.20;100.00
29379;BME280;16362;47.202;15.258;2022-07-03T02:18:28;96517.94;;;14.14;100.00
29379;BME280;16362;47.202;15.258;2022-07-03T02:21:16;96517.28;;;14.12;100.00
29379;BME280;16362;47.202;15.258;2022-07-03T02:23:57;96512.78;;;14.13;100.00
29379;BME280;16362;47.202;15.258;2022-07-03T02:26:38;96518.97;;;14.13;100.00
29379;BME280;16362;47.202;15.258;2022-07-03T02:29:07;96514.59;;;14.12;100.00
29379;BME280;16362;47.202;15.258;2022-07-03T02:31:38;96509.44;;;14.11;100.00
29379;BME280;16362;47.202;15.258;2022-07-03T02:34:07;96505.94;;;14.10;100.00
29379;BME280;16362;47.202;15.258;2022-07-03T02:36:35;96516.66;;;14.10;100.00
29379;BME280;16362;47.202;15.258;2022-07-03T02:39:04;96509.25;;;14.12;100.00
29379;BME280;16362;47.202;15.258;2022-07-03T02:41:46;96517.13;;;14.14;100.00
29379;BME280;16362;47.202;15.258;2022-07-03T02:44:27;96508.03;;;14.15;100.00
29379;BME280;16362;47.202;15.258;2022-07-03T02:47:05;96506.00;;;14.17;100.00
29379;BME280;16362;47.202;15.258;2022-07-03T02:55:42;96502.59;;;14.08;100.00
29379;BME280;16362;47.202;15.258;2022-07-03T03:03:29;96500.50;;;14.04;100.00
29379;BME280;16362;47.202;15.258;2022-07-03T03:06:03;96510.78;;;14.00;100.00
29379;BME280;16362;47.202;15.258;2022-07-03T03:08:39;96507.06;;;14.01;100.00
29379;BME280;16362;47.202;15.258;2022-07-03T03:11:17;96508.09;;;14.00;100.00
29379;BME280;16362;47.202;15.258;2022-07-03T03:13:50;96506.59;;;13.97;100.00
29379;BME280;16362;47.202;15.258;2022-07-03T03:16:21;96510.16;;;13.98;100.00
29379;BME280;16362;47.202;15.258;2022-07-03T03:18:49;96509.28;;;13.97;100.00
29379;BME280;16362;47.202;15.258;2022-07-03T03:21:17;96511.81;;;13.99;100.00
29379;BME280;16362;47.202;15.258;2022-07-03T03:23:46;96513.66;;;13.98;100.00
29379;BME280;16362;47.202;15.258;2022-07-03T03:28:45;96501.09;;;13.99;100.00
29379;BME280;16362;47.202;15.258;2022-07-03T03:31:13;96501.81;;;13.93;100.00
29379;BME280;16362;47.202;15.258;2022-07-03T03:33:42;96496.28;;;13.94;100.00
29379;BME280;16362;47.202;15.258;2022-07-03T03:36:10;96497.34;;;14.00;100.00
29379;BME280;16362;47.202;15.258;2022-07-03T03:38:38;96496.16;;;14.03;100.00
29379;BME280;16362;47.202;15.258;2022-07-03T03:41:06;96492.44;;;14.04;100.00
29379;BME280;16362;47.202;15.258;2022-07-03T03:43:37;96498.44;;;14.06;100.00
29379;BME280;16362;47.202;15.258;2022-07-03T03:46:04;96494.38;;;14.10;100.00
29379;BME280;16362;47.202;15.258;2022-07-03T03:48:33;96493.34;;;14.11;100.00
29379;BME280;16362;47.202;15.258;2022-07-03T03:51:01;96505.34;;;14.15;100.00
29379;BME280;16362;47.202;15.258;2022-07-03T03:53:29;96499.97;;;14.15;100.00
29379;BME280;16362;47.202;15.258;2022-07-03T03:56:03;96493.59;;;14.16;100.00
29379;BME280;16362;47.202;15.258;2022-07-03T03:58:32;96485.16;;;14.19;100.00
29379;BME280;16362;47.202;15.258;2022-07-03T04:01:00;96484.34;;;14.19;100.00
29379;BME280;16362;47.202;15.258;2022-07-03T04:03:28;96487.84;;;14.19;100.00
29379;BME280;16362;47.202;15.258;2022-07-03T04:05:55;96484.13;;;14.20;100.00
29379;BME280;16362;47.202;15.258;2022-07-03T04:08:23;96478.38;;;14.23;100.00
29379;BME280;16362;47.202;15.258;2022-07-03T04:10:51;96479.03;;;14.25;100.00
29379;BME280;16362;47.202;15.258;2022-07-03T04:13:18;96474.06;;;14.22;100.00
29379;BME280;16362;47.202;15.258;2022-07-03T04:15:46;96471.19;;;14.24;100.00
29379;BME280;16362;47.202;15.258;2022-07-03T04:18:14;96470.78;;;14.27;100.00
29379;BME280;16362;47.202;15.258;2022-07-03T04:20:41;96469.97;;;14.26;100.00
29379;BME280;16362;47.202;15.258;2022-07-03T04:23:08;96466.06;;;14.29;100.00
29379;BME280;16362;47.202;15.258;2022-07-03T04:25:34;96465.88;;;14.30;100.00
29379;BME280;16362;47.202;15.258;2022-07-03T04:28:01;96468.16;;;14.34;100.00
29379;BME280;16362;47.202;15.258;2022-07-03T04:30:46;96471.44;;;14.29;100.00
29379;BME280;16362;47.202;15.258;2022-07-03T04:33:13;96466.69;;;14.31;100.00
29379;BME280;16362;47.202;15.258;2022-07-03T04:35:39;96472.50;;;14.35;100.00
29379;BME280;16362;47.202;15.258;2022-07-03T04:38:06;96474.59;;;14.39;100.00
29379;BME280;16362;47.202;15.258;2022-07-03T04:40:33;96473.38;;;14.42;100.00
29379;BME280;16362;47.202;15.258;2022-07-03T04:43:00;96466.00;;;14.44;100.00
29379;BME280;16362;47.202;15.258;2022-07-03T04:45:27;96470.97;;;14.47;100.00
29379;BME280;16362;47.202;15.258;2022-07-03T04:47:53;96471.56;;;14.49;100.00
29379;BME280;16362;47.202;15.258;2022-07-03T04:50:20;96466.88;;;14.51;100.00
29379;BME280;16362;47.202;15.258;2022-07-03T04:52:47;96466.66;;;14.53;100.00
29379;BME280;16362;47.202;15.258;2022-07-03T04:55:14;96463.22;;;14.59;100.00
29379;BME280;16362;47.202;15.258;2022-07-03T04:57:40;96459.75;;;14.65;100.00
29379;BME280;16362;47.202;15.258;2022-07-03T05:00:08;96457.97;;;14.72;100.00
29379;BME280;16362;47.202;15.258;2022-07-03T05:02:35;96459.84;;;14.78;100.00
29379;BME280;16362;47.202;15.258;2022-07-03T05:05:02;96465.38;;;14.98;100.00
29379;BME280;16362;47.202;15.258;2022-07-03T05:07:29;96456.50;;;15.40;100.00
29379;BME280;16362;47.202;15.258;2022-07-03T05:09:56;96462.50;;;15.97;100.00
29379;BME280;16362;47.202;15.258;2022-07-03T05:12:24;96461.50;;;16.45;100.00
29379;BME280;16362;47.202;15.258;2022-07-03T05:14:51;96478.31;;;16.74;100.00
29379;BME280;16362;47.202;15.258;2022-07-03T05:17:18;96472.50;;;17.04;100.00
29379;BME280;16362;47.202;15.258;2022-07-03T05:19:45;96467.69;;;17.19;100.00
29379;BME280;16362;47.202;15.258;2022-07-03T05:22:13;96468.19;;;17.48;100.00
29379;BME280;16362;47.202;15.258;2022-07-03T05:24:40;96470.16;;;17.79;100.00
29379;BME280;16362;47.202;15.258;2022-07-03T05:27:07;96464.66;;;17.99;100.00
29379;BME280;16362;47.202;15.258;2022-07-03T05:29:33;96474.25;;;17.89;98.86
29379;BME280;16362;47.202;15.258;2022-07-03T05:32:04;96467.22;;;17.94;99.87
29379;BME280;16362;47.202;15.258;2022-07-03T05:34:31;96476.66;;;18.10;98.71
29379;BME280;16362;47.202;15.258;2022-07-03T05:36:58;96475.38;;;18.13;99.04
29379;BME280;16362;47.202;15.258;2022-07-03T05:39:25;96474.16;;;18.09;99.61
29379;BME280;16362;47.202;15.258;2022-07-03T05:42:02;96465.13;;;18.28;100.00
29379;BME280;16362;47.202;15.258;2022-07-03T05:44:29;96463.16;;;18.42;99.80
29379;BME280;16362;47.202;15.258;2022-07-03T05:46:56;96465.25;;;18.65;100.00
29379;BME280;16362;47.202;15.258;2022-07-03T05:49:23;96473.59;;;18.89;99.75
29379;BME280;16362;47.202;15.258;2022-07-03T05:51:49;96473.53;;;18.71;99.53
29379;BME280;16362;47.202;15.258;2022-07-03T05:54:16;96477.41;;;19.07;99.40
29379;BME280;16362;47.202;15.258;2022-07-03T05:56:43;96488.81;;;18.83;96.25
29379;BME280;16362;47.202;15.258;2022-07-03T05:59:10;96485.19;;;18.96;97.21
29379;BME280;16362;47.202;15.258;2022-07-03T06:01:36;96483.25;;;19.22;93.54
29379;BME280;16362;47.202;15.258;2022-07-03T06:04:04;96482.63;;;19.01;93.33
29379;BME280;16362;47.202;15.258;2022-07-03T06:06:31;96491.97;;;19.06;95.19
29379;BME280;16362;47.202;15.258;2022-07-03T06:08:58;96499.34;;;19.17;94.79
29379;BME280;16362;47.202;15.258;2022-07-03T06:11:24;96493.06;;;19.42;94.73
29379;BME280;16362;47.202;15.258;2022-07-03T06:13:51;96490.63;;;19.71;91.86
29379;BME280;16362;47.202;15.258;2022-07-03T06:16:18;96490.56;;;19.96;92.38
29379;BME280;16362;47.202;15.258;2022-07-03T06:18:45;96494.31;;;20.25;88.53
29379;BME280;16362;47.202;15.258;2022-07-03T06:21:12;96494.88;;;20.46;90.54
29379;BME280;16362;47.202;15.258;2022-07-03T06:23:39;96496.13;;;20.85;87.46
29379;BME280;16362;47.202;15.258;2022-07-03T06:26:16;96496.72;;;20.88;85.19
29379;BME280;16362;47.202;15.258;2022-07-03T06:28:43;96498.50;;;20.94;85.25
29379;BME280;16362;47.202;15.258;2022-07-03T06:31:10;96494.63;;;21.01;87.36
29379;BME280;16362;47.202;15.258;2022-07-03T06:33:37;96492.47;;;20.92;85.53
29379;BME280;16362;47.202;15.258;2022-07-03T06:36:04;96491.41;;;20.81;84.18
29379;BME280;16362;47.202;15.258;2022-07-03T06:38:30;96500.63;;;21.15;86.49
29379;BME280;16362;47.202;15.258;2022-07-03T06:40:57;96488.13;;;21.14;85.19
29379;BME280;16362;47.202;15.258;2022-07-03T06:43:24;96484.94;;;21.17;87.48
29379;BME280;16362;47.202;15.258;2022-07-03T06:45:51;96499.69;;;20.98;87.23
29379;BME280;16362;47.202;15.258;2022-07-03T06:48:17;96494.03;;;21.23;84.14
29379;BME280;16362;47.202;15.258;2022-07-03T06:50:47;96496.84;;;21.40;82.97
29379;BME280;16362;47.202;15.258;2022-07-03T06:53:14;96492.91;;;21.72;86.93
29379;BME280;16362;47.202;15.258;2022-07-03T06:55:41;96489.31;;;21.95;84.21
29379;BME280;16362;47.202;15.258;2022-07-03T06:58:08;96483.81;;;22.07;83.27
29379;BME280;16362;47.202;15.258;2022-07-03T07:00:35;96482.75;;;22.36;82.08
29379;BME280;16362;47.202;15.258;2022-07-03T07:03:02;96483.72;;;22.42;83.26
29379;BME280;16362;47.202;15.258;2022-07-03T07:05:29;96479.44;;;22.46;84.33
29379;BME280;16362;47.202;15.258;2022-07-03T07:07:56;96480.84;;;22.66;79.88
29379;BME280;16362;47.202;15.258;2022-07-03T07:10:23;96470.22;;;22.81;81.33
29379;BME280;16362;47.202;15.258;2022-07-03T07:12:50;96476.81;;;22.85;80.29
29379;BME280;16362;47.202;15.258;2022-07-03T07:15:17;96484.81;;;22.92;78.48
29379;BME280;16362;47.202;15.258;2022-07-03T07:17:43;96485.38;;;22.94;79.29
29379;BME280;16362;47.202;15.258;2022-07-03T07:20:10;96486.59;;;23.03;76.62
29379;BME280;16362;47.202;15.258;2022-07-03T07:22:37;96489.41;;;23.09;77.97
29379;BME280;16362;47.202;15.258;2022-07-03T07:25:04;96490.59;;;23.13;74.43
29379;BME280;16362;47.202;15.258;2022-07-03T07:27:31;96490.41;;;22.85;75.16
29379;BME280;16362;47.202;15.258;2022-07-03T07:29:58;96489.56;;;22.85;78.63
29379;BME280;16362;47.202;15.258;2022-07-03T07:32:25;96480.84;;;22.83;77.26
29379;BME280;16362;47.202;15.258;2022-07-03T07:34:51;96485.69;;;22.81;79.24
29379;BME280;16362;47.202;15.258;2022-07-03T07:37:18;96480.19;;;23.10;78.60
29379;BME280;16362;47.202;15.258;2022-07-03T07:39:45;96482.38;;;23.30;77.16
29379;BME280;16362;47.202;15.258;2022-07-03T07:42:12;96485.34;;;23.45;74.30
29379;BME280;16362;47.202;15.258;2022-07-03T07:44:39;96483.13;;;23.42;77.26
29379;BME280;16362;47.202;15.258;2022-07-03T07:47:06;96477.59;;;23.59;73.58
29379;BME280;16362;47.202;15.258;2022-07-03T07:49:33;96475.66;;;23.54;76.09
29379;BME280;16362;47.202;15.258;2022-07-03T07:52:00;96484.94;;;23.98;72.41
29379;BME280;16362;47.202;15.258;2022-07-03T07:54:26;96478.16;;;24.00;72.33
29379;BME280;16362;47.202;15.258;2022-07-03T07:56:53;96471.97;;;24.37;72.83
29379;BME280;16362;47.202;15.258;2022-07-03T07:59:20;96472.78;;;24.38;70.91
29379;BME280;16362;47.202;15.258;2022-07-03T08:01:47;96473.44;;;24.50;69.81
29379;BME280;16362;47.202;15.258;2022-07-03T08:04:32;96473.69;;;24.44;70.50
29379;BME280;16362;47.202;15.258;2022-07-03T08:07:22;96481.81;;;24.38;68.86
29379;BME280;16362;47.202;15.258;2022-07-03T08:09:49;96478.56;;;24.42;69.56
29379;BME280;16362;47.202;15.258;2022-07-03T08:12:19;96476.38;;;24.38;70.24
29379;BME280;16362;47.202;15.258;2022-07-03T08:14:46;96479.47;;;24.52;70.62
29379;BME280;16362;47.202;15.258;2022-07-03T08:17:12;96472.84;;;24.43;71.27
29379;BME280;16362;47.202;15.258;2022-07-03T08:19:39;96472.38;;;24.79;69.60
29379;BME280;16362;47.202;15.258;2022-07-03T08:22:07;96472.72;;;24.87;68.95
29379;BME280;16362;47.202;15.258;2022-07-03T08:24:34;96481.44;;;24.84;69.54
29379;BME280;16362;47.202;15.258;2022-07-03T08:27:00;96467.13;;;25.10;68.54
29379;BME280;16362;47.202;15.258;2022-07-03T08:29:27;96480.47;;;25.01;68.49
29379;BME280;16362;47.202;15.258;2022-07-03T08:32:01;96475.56;;;25.03;69.47
29379;BME280;16362;47.202;15.258;2022-07-03T08:34:28;96478.28;;;24.98;68.36
29379;BME280;16362;47.202;15.258;2022-07-03T08:36:55;96475.28;;;25.42;70.25
29379;BME280;16362;47.202;15.258;2022-07-03T08:39:22;96468.28;;;25.57;66.80
29379;BME280;16362;47.202;15.258;2022-07-03T08:41:49;96468.97;;;25.36;67.32
29379;BME280;16362;47.202;15.258;2022-07-03T08:44:17;96470.03;;;25.30;67.12
29379;BME280;16362;47.202;15.258;2022-07-03T08:46:47;96473.78;;;25.24;66.79
29379;BME280;16362;47.202;15.258;2022-07-03T08:49:16;96466.00;;;25.43;66.13
29379;BME280;16362;47.202;15.258;2022-07-03T08:51:45;96470.97;;;25.51;66.84
29379;BME280;16362;47.202;15.258;2022-07-03T08:54:12;96468.88;;;25.69;66.22
29379;BME280;16362;47.202;15.258;2022-07-03T08:56:39;96471.50;;;25.48;67.20
29379;BME280;16362;47.202;15.258;2022-07-03T08:59:07;96466.94;;;25.64;68.90
29379;BME280;16362;47.202;15.258;2022-07-03T09:01:36;96470.31;;;25.82;66.49
29379;BME280;16362;47.202;15.258;2022-07-03T09:04:11;96470.31;;;25.87;66.81
29379;BME280;16362;47.202;15.258;2022-07-03T09:06:42;96463.63;;;26.26;68.44
29379;BME280;16362;47.202;15.258;2022-07-03T09:09:09;96457.34;;;26.56;64.12
29379;BME280;16362;47.202;15.258;2022-07-03T09:11:37;96459.03;;;26.88;63.49
29379;BME280;16362;47.202;15.258;2022-07-03T09:14:04;96459.03;;;26.67;63.60
29379;BME280;16362;47.202;15.258;2022-07-03T09:16:36;96454.88;;;26.49;63.85
29379;BME280;16362;47.202;15.258;2022-07-03T09:19:03;96454.63;;;26.66;64.19
29379;BME280;16362;47.202;15.258;2022-07-03T09:21:39;96451.94;;;26.71;66.02
29379;BME280;16362;47.202;15.258;2022-07-03T09:24:08;96456.31;;;26.98;63.64
29379;BME280;16362;47.202;15.258;2022-07-03T09:26:52;96451.13;;;26.92;62.17
29379;BME280;16362;47.202;15.258;2022-07-03T09:29:19;96445.91;;;26.80;62.59
29379;BME280;16362;47.202;15.258;2022-07-03T09:31:54;96452.16;;;26.60;61.84
29379;BME280;16362;47.202;15.258;2022-07-03T09:34:22;96446.19;;;26.78;65.11
29379;BME280;16362;47.202;15.258;2022-07-03T09:36:50;96443.41;;;27.14;62.74
29379;BME280;16362;47.202;15.258;2022-07-03T09:42:10;96439.84;;;27.24;63.41
29379;BME280;16362;47.202;15.258;2022-07-03T09:44:39;96442.06;;;27.06;60.79
29379;BME280;16362;47.202;15.258;2022-07-03T09:47:16;96443.72;;;27.08;62.68
29379;BME280;16362;47.202;15.258;2022-07-03T09:49:57;96444.78;;;26.91;62.85
29379;BME280;16362;47.202;15.258;2022-07-03T09:52:43;96439.84;;;27.14;63.00
29379;BME280;16362;47.202;15.258;2022-07-03T09:57:40;96440.38;;;27.21;61.83
29379;BME280;16362;47.202;15.258;2022-07-03T10:03:08;96432.69;;;27.28;62.81
29379;BME280;16362;47.202;15.258;2022-07-03T10:05:40;96434.06;;;27.31;59.61
29379;BME280;16362;47.202;15.258;2022-07-03T10:08:09;96431.03;;;27.43;61.02
29379;BME280;16362;47.202;15.258;2022-07-03T10:10:42;96436.78;;;27.46;61.33
29379;BME280;16362;47.202;15.258;2022-07-03T10:13:10;96432.38;;;27.50;60.31
29379;BME280;16362;47.202;15.258;2022-07-03T10:15:38;96430.78;;;27.44;60.59
29379;BME280;16362;47.202;15.258;2022-07-03T10:18:10;96432.69;;;27.38;61.39
29379;BME280;16362;47.202;15.258;2022-07-03T10:23:10;96422.81;;;27.43;63.03
29379;BME280;16362;47.202;15.258;2022-07-03T10:25:41;96422.00;;;27.47;59.61
29379;BME280;16362;47.202;15.258;2022-07-03T10:28:11;96430.72;;;27.54;60.09
29379;BME280;16362;47.202;15.258;2022-07-03T10:30:40;96424.53;;;27.88;58.57
29379;BME280;16362;47.202;15.258;2022-07-03T10:33:08;96423.25;;;27.70;58.10
29379;BME280;16362;47.202;15.258;2022-07-03T10:35:40;96414.47;;;27.73;59.94
29379;BME280;16362;47.202;15.258;2022-07-03T10:38:38;96414.69;;;27.87;59.58
29379;BME280;16362;47.202;15.258;2022-07-03T10:41:36;96412.03;;;27.67;56.38
29379;BME280;16362;47.202;15.258;2022-07-03T10:44:23;96408.41;;;27.82;57.83
29379;BME280;16362;47.202;15.258;2022-07-03T10:52:44;96400.56;;;28.15;57.79
29379;BME280;16362;47.202;15.258;2022-07-03T10:55:12;96401.78;;;27.93;55.80
29379;BME280;16362;47.202;15.258;2022-07-03T10:57:40;96406.50;;;27.82;55.83
29379;BME280;16362;47.202;15.258;2022-07-03T11:00:12;96397.31;;;28.08;56.03
29379;BME280;16362;47.202;15.258;2022-07-03T11:02:45;96399.88;;;28.33;55.40
29379;BME280;16362;47.202;15.258;2022-07-03T11:05:23;96398.63;;;28.55;55.16
29379;BME280;16362;47.202;15.258;2022-07-03T11:13:01;96388.00;;;28.48;55.70
29379;BME280;16362;47.202;15.258;2022-07-03T11:15:49;96390.25;;;28.76;56.84
29379;BME280;16362;47.202;15.258;2022-07-03T11:36:26;96366.31;;;28.47;53.02
29379;BME280;16362;47.202;15.258;2022-07-03T11:39:09;96360.47;;;28.53;53.64
29379;BME280;16362;47.202;15.258;2022-07-03T11:41:49;96354.94;;;28.59;56.60
29379;BME280;16362;47.202;15.258;2022-07-03T11:44:25;96361.44;;;28.38;55.15
29379;BME280;16362;47.202;15.258;2022-07-03T11:46:55;96363.00;;;28.50;57.08
29379;BME280;16362;47.202;15.258;2022-07-03T11:49:24;96361.03;;;28.55;55.27
29379;BME280;16362;47.202;15.258;2022-07-03T11:52:08;96361.69;;;29.01;56.54
29379;BME280;16362;47.202;15.258;2022-07-03T11:54:51;96358.84;;;28.87;57.02
29379;BME280;16362;47.202;15.258;2022-07-03T11:57:18;96360.47;;;28.88;52.05
29379;BME280;16362;47.202;15.258;2022-07-03T11:59:45;96359.59;;;28.93;54.22
29379;BME280;16362;47.202;15.258;2022-07-03T12:02:13;96355.41;;;29.00;52.96
29379;BME280;16362;47.202;15.258;2022-07-03T12:04:40;96355.75;;;28.94;55.23
29379;BME280;16362;47.202;15.258;2022-07-03T12:07:08;96348.63;;;29.17;53.05
29379;BME280;16362;47.202;15.258;2022-07-03T12:09:36;96356.16;;;29.06;51.69
29379;BME280;16362;47.202;15.258;2022-07-03T12:12:07;96347.47;;;28.99;55.64
29379;BME280;16362;47.202;15.258;2022-07-03T12:14:39;96348.16;;;29.10;52.46
29379;BME280;16362;47.202;15.258;2022-07-03T12:17:12;96344.41;;;29.00;52.19
29379;BME280;16362;47.202;15.258;2022-07-03T12:19:57;96336.63;;;28.83;54.33
29379;BME280;16362;47.202;15.258;2022-07-03T12:22:30;96339.28;;;28.94;55.76
29379;BME280;16362;47.202;15.258;2022-07-03T12:25:09;96338.34;;;29.03;54.91
29379;BME280;16362;47.202;15.258;2022-07-03T12:27:44;96335.59;;;29.03;54.20
29379;BME280;16362;47.202;15.258;2022-07-03T12:30:17;96326.69;;;29.12;53.79
29379;BME280;16362;47.202;15.258;2022-07-03T12:32:53;96323.94;;;29.12;55.35
29379;BME280;16362;47.202;15.258;2022-07-03T12:35:21;96323.25;;;29.01;53.08
29379;BME280;16362;47.202;15.258;2022-07-03T12:37:48;96329.00;;;29.04;53.30
29379;BME280;16362;47.202;15.258;2022-07-03T12:40:16;96333.03;;;29.12;55.29
29379;BME280;16362;47.202;15.258;2022-07-03T12:42:51;96327.25;;;29.14;51.25
29379;BME280;16362;47.202;15.258;2022-07-03T12:45:21;96319.00;;;29.14;52.48
29379;BME280;16362;47.202;15.258;2022-07-03T12:48:02;96319.69;;;29.24;53.51
29379;BME280;16362;47.202;15.258;2022-07-03T12:50:50;96314.84;;;29.40;49.91
29379;BME280;16362;47.202;15.258;2022-07-03T12:53:29;96317.44;;;29.32;50.92
29379;BME280;16362;47.202;15.258;2022-07-03T12:56:03;96315.72;;;29.36;52.15
29379;BME280;16362;47.202;15.258;2022-07-03T12:58:30;96312.56;;;29.23;50.87
29379;BME280;16362;47.202;15.258;2022-07-03T13:01:25;96308.16;;;29.22;53.51
29379;BME280;16362;47.202;15.258;2022-07-03T13:03:53;96299.53;;;29.10;51.56
29379;BME280;16362;47.202;15.258;2022-07-03T13:06:21;96298.88;;;29.18;52.24
29379;BME280;16362;47.202;15.258;2022-07-03T13:08:54;96302.03;;;29.31;51.10
29379;BME280;16362;47.202;15.258;2022-07-03T13:11:29;96297.91;;;29.33;55.14
29379;BME280;16362;47.202;15.258;2022-07-03T13:14:10;96287.13;;;29.13;53.29
29379;BME280;16362;47.202;15.258;2022-07-03T13:19:11;96275.41;;;29.50;51.68
29379;BME280;16362;47.202;15.258;2022-07-03T13:21:39;96272.53;;;29.17;52.81
29379;BME280;16362;47.202;15.258;2022-07-03T13:24:06;96274.38;;;29.22;53.52
29379;BME280;16362;47.202;15.258;2022-07-03T13:26:34;96268.81;;;29.32;51.35
29379;BME280;16362;47.202;15.258;2022-07-03T13:29:01;96267.75;;;29.28;53.68
29379;BME280;16362;47.202;15.258;2022-07-03T13:31:28;96271.88;;;29.50;50.31
29379;BME280;16362;47.202;15.258;2022-07-03T13:33:56;96271.81;;;29.31;51.54
29379;BME280;16362;47.202;15.258;2022-07-03T13:36:29;96263.88;;;29.29;50.82
29379;BME280;16362;47.202;15.258;2022-07-03T13:38:57;96270.50;;;29.28;54.01
29379;BME280;16362;47.202;15.258;2022-07-03T13:41:24;96270.41;;;29.33;51.13
29379;BME280;16362;47.202;15.258;2022-07-03T13:43:52;96271.81;;;29.31;53.33
29379;BME280;16362;47.202;15.258;2022-07-03T13:46:20;96270.41;;;29.33;53.45
29379;BME280;16362;47.202;15.258;2022-07-03T13:48:48;96262.66;;;29.16;54.05
29379;BME280;16362;47.202;15.258;2022-07-03T13:51:15;96257.38;;;29.20;52.20
29379;BME280;16362;47.202;15.258;2022-07-03T13:53:42;96264.91;;;29.09;53.16
29379;BME280;16362;47.202;15.258;2022-07-03T13:56:09;96269.31;;;29.10;51.54
29379;BME280;16362;47.202;15.258;2022-07-03T13:58:36;96266.81;;;29.14;50.25
29379;BME280;16362;47.202;15.258;2022-07-03T14:01:03;96267.97;;;29.07;51.12
29379;BME280;16362;47.202;15.258;2022-07-03T14:03:33;96266.81;;;29.14;54.39
29379;BME280;16362;47.202;15.258;2022-07-03T14:06:00;96257.81;;;29.08;51.69
29379;BME280;16362;47.202;15.258;2022-07-03T14:08:27;96265.56;;;29.01;52.29
29379;BME280;16362;47.202;15.258;2022-07-03T14:10:54;96262.91;;;28.96;52.99
29379;BME280;16362;47.202;15.258;2022-07-03T14:13:25;96263.31;;;29.08;54.28
29379;BME280;16362;47.202;15.258;2022-07-03T14:15:52;96263.13;;;28.99;51.14
29379;BME280;16362;47.202;15.258;2022-07-03T14:18:19;96264.72;;;29.05;52.36
29379;BME280;16362;47.202;15.258;2022-07-03T14:20:46;96264.16;;;29.03;55.30
29379;BME280;16362;47.202;15.258;2022-07-03T14:23:12;96250.09;;;28.86;55.23
29379;BME280;16362;47.202;15.258;2022-07-03T14:25:39;96256.19;;;28.83;56.45